createdAt,value
2023-03-25T00:00:26.027Z,33.17
2023-03-25T00:02:54.127Z,33.21
2023-03-25T00:05:22.834Z,32.92
2023-03-25T00:07:52.158Z,33.33
2023-03-25T00:10:20.425Z,33.17
2023-03-25T00:12:49.663Z,33.02
2023-03-25T00:15:18.022Z,33.04
2023-03-25T00:17:47.431Z,33.30
2023-03-25T00:20:16.206Z,33.16
2023-03-25T00:22:44.806Z,33.11
2023-03-25T00:25:17.436Z,33.31
2023-03-25T00:27:47.016Z,33.18
2023-03-25T00:30:16.108Z,33.33
2023-03-25T00:32:46.270Z,33.54
2023-03-25T00:37:48.177Z,33.43
2023-03-25T00:40:16.220Z,33.16
2023-03-25T00:42:45.043Z,33.42
2023-03-25T00:45:13.017Z,33.30
2023-03-25T00:47:41.702Z,33.21
2023-03-25T00:50:10.407Z,33.10
2023-03-25T00:52:39.665Z,33.16
2023-03-25T00:55:09.528Z,33.39
2023-03-25T00:57:37.587Z,33.44
2023-03-25T01:00:08.111Z,33.24
2023-03-25T01:02:36.367Z,33.42
2023-03-25T01:05:05.193Z,33.27
2023-03-25T01:07:33.808Z,33.30
2023-03-25T01:10:03.136Z,33.45
2023-03-25T01:12:32.572Z,33.40
2023-03-25T01:15:00.852Z,33.17
2023-03-25T01:17:28.849Z,33.13
2023-03-25T01:19:56.871Z,33.19
2023-03-25T01:22:24.893Z,33.36
2023-03-25T01:24:52.932Z,33.19
2023-03-25T01:27:23.997Z,33.14
2023-03-25T01:29:51.949Z,33.63
2023-03-25T01:32:20.050Z,33.26
2023-03-25T01:34:48.197Z,33.57
2023-03-25T01:37:16.406Z,33.59
2023-03-25T01:39:44.424Z,33.68
2023-03-25T01:42:12.848Z,33.52
2023-03-25T01:45:20.528Z,33.38
2023-03-25T01:47:51.014Z,33.50
2023-03-25T01:50:19.128Z,33.73
2023-03-25T01:52:48.436Z,33.34
2023-03-25T01:55:18.090Z,33.48
2023-03-25T01:57:46.430Z,33.37
2023-03-25T02:00:15.707Z,33.42
2023-03-25T02:02:45.747Z,33.74
2023-03-25T02:05:22.248Z,33.71
2023-03-25T02:07:52.679Z,33.36
2023-03-25T02:10:20.843Z,33.67
2023-03-25T02:12:48.916Z,33.55
2023-03-25T02:15:25.634Z,33.64
2023-03-25T02:18:15.014Z,33.61
2023-03-25T02:21:06.130Z,33.67
2023-03-25T02:23:57.927Z,33.65
2023-03-25T02:26:50.130Z,33.65
2023-03-25T02:29:24.128Z,33.57
2023-03-25T02:31:57.855Z,33.54
2023-03-25T02:34:39.400Z,33.66
2023-03-25T02:37:20.782Z,33.48
2023-03-25T02:39:52.572Z,33.78
2023-03-25T02:42:23.350Z,33.68
2023-03-25T02:44:54.722Z,33.64
2023-03-25T02:47:23.738Z,33.80
2023-03-25T02:49:53.764Z,33.61
2023-03-25T02:52:23.037Z,33.65
2023-03-25T02:54:52.475Z,33.78
2023-03-25T02:57:21.360Z,33.40
2023-03-25T02:59:50.440Z,33.76
2023-03-25T03:02:19.490Z,33.83
2023-03-25T03:04:48.893Z,33.83
2023-03-25T03:07:21.131Z,33.36
2023-03-25T03:09:52.678Z,33.69
2023-03-25T03:12:30.413Z,33.63
2023-03-25T03:15:04.562Z,33.63
2023-03-25T03:17:38.223Z,33.69
2023-03-25T03:20:10.272Z,33.68
2023-03-25T03:22:40.931Z,33.57
2023-03-25T03:25:17.952Z,33.51
2023-03-25T03:27:48.384Z,33.54
2023-03-25T03:30:18.944Z,33.64
2023-03-25T03:32:49.904Z,33.38
2023-03-25T03:35:20.134Z,33.66
2023-03-25T03:37:50.936Z,33.48
2023-03-25T03:40:21.610Z,33.37
2023-03-25T03:42:51.303Z,33.61
2023-03-25T03:45:20.882Z,33.40
2023-03-25T03:47:50.751Z,33.50
2023-03-25T03:50:20.624Z,33.42
2023-03-25T03:52:51.342Z,33.35
2023-03-25T03:55:25.374Z,33.41
2023-03-25T03:57:58.532Z,33.77
2023-03-25T04:00:27.330Z,33.74
2023-03-25T04:02:56.722Z,33.68
2023-03-25T04:05:30.711Z,33.75
2023-03-25T04:08:00.185Z,33.35
2023-03-25T04:10:34.836Z,33.43
2023-03-25T04:13:04.581Z,33.66
2023-03-25T04:15:32.611Z,33.80
2023-03-25T04:18:01.865Z,33.80
2023-03-25T04:20:34.305Z,33.77
2023-03-25T04:23:02.544Z,33.43
2023-03-25T04:25:32.496Z,33.81
2023-03-25T04:28:00.579Z,33.75
2023-03-25T04:30:31.132Z,33.80
2023-03-25T04:33:00.737Z,33.58
2023-03-25T04:35:28.928Z,33.51
2023-03-25T04:37:57.803Z,33.87
2023-03-25T04:40:26.069Z,33.83
2023-03-25T04:42:56.951Z,33.52
2023-03-25T04:45:25.423Z,33.79
2023-03-25T04:47:55.200Z,33.60
2023-03-25T04:50:24.284Z,33.52
2023-03-25T04:52:53.150Z,33.58
2023-03-25T04:55:21.246Z,33.55
2023-03-25T04:57:49.858Z,33.62
2023-03-25T05:00:20.724Z,33.86
2023-03-25T05:02:49.518Z,33.59
2023-03-25T05:05:19.659Z,33.86
2023-03-25T05:07:50.698Z,33.82
2023-03-25T05:10:23.225Z,33.58
2023-03-25T05:12:52.489Z,33.84
2023-03-25T05:15:23.099Z,33.77
2023-03-25T05:17:52.348Z,33.66
2023-03-25T05:20:22.615Z,33.83
2023-03-25T05:22:53.634Z,33.77
2023-03-25T05:25:23.241Z,33.46
2023-03-25T05:27:52.442Z,33.55
2023-03-25T05:30:23.104Z,33.46
2023-03-25T05:32:56.217Z,33.54
2023-03-25T05:35:26.901Z,33.69
2023-03-25T05:37:59.645Z,33.78
2023-03-25T05:40:28.812Z,33.49
2023-03-25T05:42:58.152Z,33.77
2023-03-25T05:45:31.760Z,33.74
2023-03-25T05:48:03.461Z,33.38
2023-03-25T05:50:32.490Z,33.69
2023-03-25T05:53:04.170Z,33.67
2023-03-25T05:55:34.399Z,33.46
2023-03-25T05:58:08.357Z,33.80
2023-03-25T06:00:40.959Z,33.47
2023-03-25T06:03:11.414Z,33.81
2023-03-25T06:05:41.493Z,33.51
2023-03-25T06:08:11.213Z,33.64
2023-03-25T06:10:42.853Z,33.61
2023-03-25T06:13:10.796Z,33.61
2023-03-25T06:15:43.111Z,33.61
2023-03-25T06:18:12.246Z,33.88
2023-03-25T06:20:41.286Z,33.52
2023-03-25T06:23:11.875Z,33.58
2023-03-25T06:25:41.426Z,33.71
2023-03-25T06:28:10.403Z,33.54
2023-03-25T06:30:44.376Z,33.58
2023-03-25T06:33:15.010Z,33.44
2023-03-25T06:36:04.572Z,33.44
2023-03-25T06:38:34.246Z,33.51
2023-03-25T06:41:03.306Z,33.68
2023-03-25T06:43:32.628Z,33.87
2023-03-25T06:46:05.681Z,33.75
2023-03-25T06:48:35.016Z,33.54
2023-03-25T06:51:04.449Z,33.47
2023-03-25T06:53:33.818Z,33.71
2023-03-25T06:56:01.924Z,33.63
2023-03-25T06:58:35.188Z,33.94
2023-03-25T07:01:07.898Z,33.79
2023-03-25T07:03:37.974Z,33.75
2023-03-25T07:06:06.838Z,33.86
2023-03-25T07:08:37.190Z,33.64
2023-03-25T07:11:08.072Z,33.85
2023-03-25T07:13:38.217Z,33.52
2023-03-25T07:16:08.994Z,33.57
2023-03-25T07:18:38.194Z,33.49
2023-03-25T07:21:06.650Z,33.74
2023-03-25T07:23:35.544Z,33.68
2023-03-25T07:26:04.609Z,33.83
2023-03-25T07:28:33.710Z,33.63
2023-03-25T07:31:05.865Z,33.56
2023-03-25T07:33:36.589Z,33.70
2023-03-25T07:36:06.666Z,33.43
2023-03-25T07:38:38.663Z,33.75
2023-03-25T07:41:08.846Z,33.46
2023-03-25T07:43:40.383Z,33.85
2023-03-25T07:46:08.518Z,33.49
2023-03-25T07:48:41.652Z,33.82
2023-03-25T07:51:11.253Z,33.43
2023-03-25T07:53:42.586Z,33.39
2023-03-25T07:56:11.966Z,33.46
2023-03-25T07:58:39.902Z,33.48
2023-03-25T08:01:08.425Z,33.41
2023-03-25T08:03:38.861Z,33.35
2023-03-25T08:06:09.198Z,33.54
2023-03-25T08:08:37.293Z,33.85
2023-03-25T08:11:05.551Z,33.69
2023-03-25T08:13:33.525Z,33.51
2023-03-25T08:16:01.462Z,33.68
2023-03-25T08:18:29.571Z,33.89
2023-03-25T08:20:57.623Z,33.52
2023-03-25T08:23:27.086Z,33.49
2023-03-25T08:25:55.411Z,33.73
2023-03-25T08:28:23.613Z,33.68
2023-03-25T08:30:55.336Z,33.95
2023-03-25T08:33:27.678Z,34.18
2023-03-25T08:35:58.150Z,34.06
2023-03-25T08:38:34.344Z,34.49
2023-03-25T08:41:02.698Z,34.74
2023-03-25T08:43:30.744Z,34.52
2023-03-25T08:45:58.779Z,34.90
2023-03-25T08:48:26.782Z,34.86
2023-03-25T08:50:54.777Z,34.76
2023-03-25T08:53:22.822Z,34.83
2023-03-25T08:55:54.104Z,35.01
2023-03-25T08:58:22.297Z,35.15
2023-03-25T09:00:54.493Z,35.08
2023-03-25T09:03:22.579Z,35.14
2023-03-25T09:05:50.897Z,35.24
2023-03-25T09:08:19.168Z,35.02
2023-03-25T09:10:47.181Z,35.40
2023-03-25T09:13:16.661Z,35.41
2023-03-25T09:15:44.861Z,35.08
2023-03-25T09:18:12.813Z,35.21
2023-03-25T09:20:41.339Z,35.47
2023-03-25T09:23:09.802Z,35.29
2023-03-25T09:25:38.730Z,35.33
2023-03-25T09:28:07.142Z,35.59
2023-03-25T09:30:36.587Z,36.00
2023-03-25T09:33:04.805Z,35.97
2023-03-25T09:35:33.050Z,35.73
2023-03-25T09:38:01.054Z,35.64
2023-03-25T09:40:29.025Z,35.86
2023-03-25T09:43:04.567Z,35.65
2023-03-25T09:45:37.840Z,36.08
2023-03-25T09:48:19.925Z,35.72
2023-03-25T09:50:47.908Z,35.90
2023-03-25T09:53:19.845Z,36.02
2023-03-25T09:55:48.396Z,35.92
2023-03-25T09:58:26.617Z,36.23
2023-03-25T10:00:57.990Z,36.07
2023-03-25T10:03:28.653Z,36.26
2023-03-25T10:06:09.345Z,36.33
2023-03-25T10:08:43.723Z,36.33
2023-03-25T10:11:14.048Z,36.44
2023-03-25T10:13:45.260Z,36.17
2023-03-25T10:16:23.205Z,36.40
2023-03-25T10:18:56.925Z,36.43
2023-03-25T10:21:26.481Z,36.11
2023-03-25T10:23:58.989Z,36.11
2023-03-25T10:26:28.627Z,36.45
2023-03-25T10:28:58.110Z,36.36
2023-03-25T10:31:28.134Z,36.25
2023-03-25T10:33:57.821Z,36.36
2023-03-25T10:36:31.054Z,36.58
2023-03-25T10:39:01.959Z,37.22
2023-03-25T10:41:31.949Z,36.91
2023-03-25T10:43:59.935Z,37.29
2023-03-25T10:46:31.853Z,37.03
2023-03-25T10:49:00.095Z,37.00
2023-03-25T10:51:28.640Z,37.08
2023-03-25T10:53:57.096Z,37.06
2023-03-25T10:56:26.775Z,36.68
2023-03-25T10:58:55.695Z,37.04
2023-03-25T11:01:28.919Z,37.18
2023-03-25T11:03:58.264Z,37.06
2023-03-25T11:06:29.667Z,36.99
2023-03-25T11:08:59.462Z,36.52
2023-03-25T11:11:33.371Z,36.74
2023-03-25T11:14:02.553Z,36.61
2023-03-25T11:16:33.140Z,36.54
2023-03-25T11:19:03.438Z,36.64
2023-03-25T11:21:32.937Z,36.55
2023-03-25T11:24:01.309Z,36.54
2023-03-25T11:26:30.507Z,36.85
2023-03-25T11:29:02.506Z,37.00
2023-03-25T11:31:30.740Z,36.72
2023-03-25T11:34:05.695Z,36.92
2023-03-25T11:36:34.072Z,37.20
2023-03-25T11:39:04.502Z,36.81
2023-03-25T11:41:33.608Z,36.69
2023-03-25T11:44:05.846Z,36.75
2023-03-25T11:46:34.201Z,36.71
2023-03-25T11:49:12.136Z,36.65
2023-03-25T11:51:40.261Z,36.63
2023-03-25T11:54:09.383Z,36.36
2023-03-25T11:56:38.904Z,36.63
2023-03-25T11:59:09.490Z,36.69
2023-03-25T12:01:39.593Z,35.99
2023-03-25T12:04:13.284Z,35.81
2023-03-25T12:06:54.322Z,35.67
2023-03-25T12:09:22.427Z,35.76
2023-03-25T12:11:54.073Z,35.66
2023-03-25T12:14:27.992Z,35.53
2023-03-25T12:16:59.230Z,35.13
2023-03-25T12:19:32.741Z,35.90
2023-03-25T12:22:10.538Z,35.80
2023-03-25T12:24:46.547Z,35.66
2023-03-25T12:27:21.605Z,35.31
2023-03-25T12:29:52.178Z,35.41
2023-03-25T12:33:18.736Z,35.23
2023-03-25T12:35:50.634Z,35.25
2023-03-25T12:38:28.838Z,35.78
2023-03-25T12:41:13.701Z,35.76
2023-03-25T12:43:58.560Z,35.73
2023-03-25T12:46:36.038Z,35.83
2023-03-25T12:49:11.568Z,36.51
2023-03-25T12:51:45.884Z,36.46
2023-03-25T12:54:22.861Z,36.09
2023-03-25T12:56:54.590Z,36.01
2023-03-25T12:59:33.912Z,36.13
2023-03-25T13:02:11.420Z,35.94
2023-03-25T13:04:49.215Z,35.93
2023-03-25T13:07:19.930Z,36.30
2023-03-25T13:09:54.744Z,36.64
2023-03-25T13:12:29.455Z,36.43
2023-03-25T13:15:01.647Z,36.37
2023-03-25T13:21:21.890Z,37.03
2023-03-25T13:23:53.758Z,36.44
2023-03-25T13:26:23.211Z,36.55
2023-03-25T13:28:54.212Z,36.27
2023-03-25T13:31:23.601Z,36.30
2023-03-25T13:33:54.386Z,36.72
2023-03-25T13:36:26.664Z,37.80
2023-03-25T13:38:58.061Z,37.02
2023-03-25T13:41:27.735Z,37.24
2023-03-25T13:44:00.405Z,36.92
2023-03-25T13:46:48.180Z,36.88
2023-03-25T13:49:18.866Z,37.00
2023-03-25T13:51:48.109Z,36.79
2023-03-25T13:54:20.697Z,36.87
2023-03-25T13:57:09.124Z,37.30
2023-03-25T13:59:47.606Z,37.43
2023-03-25T14:02:38.916Z,37.90
2023-03-25T14:05:44.090Z,38.71
2023-03-25T14:08:41.637Z,38.77
2023-03-25T14:11:23.196Z,39.04
2023-03-25T14:13:53.599Z,39.34
2023-03-25T14:16:22.824Z,39.47
2023-03-25T14:18:51.629Z,39.32
2023-03-25T14:21:31.213Z,40.62
2023-03-25T14:24:03.513Z,40.48
2023-03-25T14:26:33.358Z,40.39
2023-03-25T14:29:04.778Z,41.09
2023-03-25T14:31:33.384Z,41.07
2023-03-25T14:34:34.897Z,41.15
2023-03-25T14:37:27.503Z,40.79
2023-03-25T14:39:57.257Z,40.48
2023-03-25T14:42:43.437Z,40.65
2023-03-25T14:45:54.118Z,40.56
2023-03-25T14:48:27.264Z,40.19
2023-03-25T14:51:24.168Z,39.91
2023-03-25T14:53:53.680Z,39.86
2023-03-25T14:56:24.281Z,39.90
2023-03-25T14:58:54.947Z,39.86
2023-03-25T15:01:41.532Z,40.22
2023-03-25T15:04:13.341Z,40.66
2023-03-25T15:06:41.956Z,41.25
2023-03-25T15:09:12.498Z,40.68
2023-03-25T15:11:41.733Z,40.49
2023-03-25T15:14:12.723Z,40.58
2023-03-25T15:16:57.334Z,40.97
2023-03-25T15:19:25.547Z,40.57
2023-03-25T15:22:22.041Z,41.05
2023-03-25T15:24:57.766Z,40.74
2023-03-25T15:27:36.453Z,40.81
2023-03-25T15:30:10.768Z,40.80
2023-03-25T15:32:47.151Z,40.85
2023-03-25T15:35:37.508Z,41.09
2023-03-25T15:38:44.213Z,41.17
2023-03-25T15:41:19.609Z,41.82
2023-03-25T15:44:00.916Z,41.75
2023-03-25T15:46:51.018Z,41.97
2023-03-25T15:49:31.708Z,41.73
2023-03-25T15:52:08.603Z,41.58
2023-03-25T15:54:38.227Z,41.64
2023-03-25T15:57:09.630Z,41.43
2023-03-25T15:59:41.686Z,41.40
2023-03-25T16:02:18.524Z,41.61
2023-03-25T16:04:48.558Z,41.60
2023-03-25T16:07:17.969Z,41.54
2023-03-25T16:09:48.750Z,41.37
2023-03-25T16:12:23.673Z,41.59
2023-03-25T16:14:52.706Z,41.31
2023-03-25T16:17:23.115Z,41.90
2023-03-25T16:19:52.999Z,41.91
2023-03-25T16:22:25.558Z,41.72
2023-03-25T16:24:56.256Z,42.07
2023-03-25T16:27:26.678Z,41.95
2023-03-25T16:29:55.349Z,41.71
2023-03-25T16:32:59.199Z,41.65
2023-03-25T16:35:29.848Z,41.53
2023-03-25T16:37:57.864Z,41.61
2023-03-25T16:40:28.868Z,41.71
2023-03-25T16:42:56.939Z,42.02
2023-03-25T16:45:26.153Z,41.73
2023-03-25T16:47:56.178Z,42.08
2023-03-25T16:50:25.736Z,42.23
2023-03-25T16:53:02.804Z,42.34
2023-03-25T16:55:33.188Z,42.40
2023-03-25T16:58:02.972Z,42.49
2023-03-25T17:00:43.334Z,42.32
2023-03-25T17:03:17.822Z,42.31
2023-03-25T17:05:59.410Z,42.32
2023-03-25T17:08:30.211Z,42.29
2023-03-25T17:10:59.479Z,42.14
2023-03-25T17:13:29.797Z,42.00
2023-03-25T17:15:59.062Z,42.15
2023-03-25T17:27:50.922Z,42.17
2023-03-25T17:30:22.120Z,41.98
2023-03-25T17:33:10.649Z,41.94
2023-03-25T17:35:40.139Z,42.07
2023-03-25T17:38:14.310Z,41.79
2023-03-25T17:40:43.605Z,42.05
2023-03-25T17:43:18.661Z,42.08
2023-03-25T17:45:49.182Z,42.09
2023-03-25T17:48:36.524Z,42.02
2023-03-25T17:51:06.625Z,42.13
2023-03-25T17:53:35.832Z,41.95
2023-03-25T17:56:06.044Z,41.99
2023-03-25T17:58:35.622Z,42.30
2023-03-25T18:01:07.368Z,41.99
2023-03-25T18:15:40.529Z,41.84
2023-03-25T18:18:15.722Z,41.83
2023-03-25T18:20:46.002Z,41.98
2023-03-25T18:23:15.603Z,41.80
2023-03-25T18:25:45.964Z,41.69
2023-03-25T18:28:15.055Z,41.51
2023-03-25T18:30:45.756Z,41.58
2023-03-25T18:33:15.852Z,41.75
2023-03-25T18:35:44.089Z,41.47
2023-03-25T18:38:17.258Z,41.57
2023-03-25T18:40:45.295Z,41.43
2023-03-25T18:43:14.520Z,41.54
2023-03-25T18:45:44.330Z,41.42
2023-03-25T18:48:13.093Z,41.19
2023-03-25T18:50:48.480Z,41.46
2023-03-25T18:53:17.870Z,41.48
2023-03-25T18:55:48.111Z,41.13
2023-03-25T18:58:18.624Z,41.54
2023-03-25T19:00:47.081Z,41.47
2023-03-25T19:03:16.396Z,41.19
2023-03-25T19:05:46.184Z,41.12
2023-03-25T19:08:16.495Z,41.14
2023-03-25T19:10:46.137Z,41.07
2023-03-25T19:13:14.213Z,41.26
2023-03-25T19:15:44.306Z,41.01
2023-03-25T19:18:32.422Z,40.99
2023-03-25T19:21:03.166Z,41.26
2023-03-25T19:23:32.697Z,41.03
2023-03-25T19:26:01.256Z,41.16
2023-03-25T19:28:29.676Z,41.39
2023-03-25T19:31:00.950Z,41.01
2023-03-25T19:33:31.159Z,41.08
2023-03-25T19:36:04.302Z,41.08
2023-03-25T19:38:34.056Z,41.27
2023-03-25T19:41:05.754Z,41.13
2023-03-25T19:43:35.057Z,40.98
2023-03-25T19:46:05.578Z,41.28
2023-03-25T19:48:35.043Z,41.11
2023-03-25T19:51:04.836Z,41.08
2023-03-25T19:53:33.830Z,40.93
2023-03-25T19:56:04.868Z,40.84
2023-03-25T19:58:34.717Z,41.34
2023-03-25T20:01:04.061Z,41.00
2023-03-25T20:03:33.727Z,41.23
2023-03-25T20:06:06.517Z,41.36
2023-03-25T20:08:34.589Z,41.30
2023-03-25T20:11:09.669Z,41.11
2023-03-25T20:13:39.192Z,41.21
2023-03-25T20:16:08.510Z,41.10
2023-03-25T20:22:41.366Z,40.95
2023-03-25T20:25:10.870Z,40.82
2023-03-25T20:27:39.027Z,40.84
2023-03-25T20:30:08.368Z,41.05
2023-03-25T20:36:17.537Z,41.29
2023-03-25T20:38:56.682Z,41.26
2023-03-25T20:41:25.583Z,41.13
2023-03-25T20:43:53.605Z,41.21
2023-03-25T20:46:23.983Z,41.08
2023-03-25T20:48:52.110Z,41.04
2023-03-25T20:51:20.116Z,41.34
2023-03-25T20:53:49.673Z,41.23
2023-03-25T20:56:17.616Z,40.97
2023-03-25T20:58:45.647Z,41.10
2023-03-25T21:01:15.548Z,40.85
2023-03-25T21:04:39.798Z,40.89
2023-03-25T21:07:10.280Z,40.80
2023-03-25T21:09:39.629Z,40.86
2023-03-25T21:12:07.971Z,41.40
2023-03-25T21:14:37.606Z,41.16
2023-03-25T21:17:05.694Z,41.24
2023-03-25T21:19:33.692Z,41.24
2023-03-25T21:22:01.679Z,40.97
2023-03-25T21:24:31.359Z,40.97
2023-03-25T21:27:00.745Z,41.05
2023-03-25T21:29:28.730Z,41.29
2023-03-25T21:31:57.709Z,41.11
2023-03-25T21:34:25.856Z,41.32
2023-03-25T21:36:53.778Z,41.33
2023-03-25T21:39:21.831Z,41.31
2023-03-25T21:41:49.818Z,41.10
2023-03-25T21:44:19.176Z,41.00
2023-03-25T21:46:47.161Z,41.35
2023-03-25T21:49:15.696Z,41.36
2023-03-25T21:51:44.355Z,41.03
2023-03-25T21:54:14.397Z,41.28
2023-03-25T21:56:42.642Z,40.96
2023-03-25T21:59:10.607Z,40.88
2023-03-25T22:01:42.643Z,41.48
2023-03-25T22:04:10.913Z,41.04
2023-03-25T22:06:39.077Z,41.28
2023-03-25T22:09:08.015Z,40.94
2023-03-25T22:11:37.602Z,40.99
2023-03-25T22:14:06.478Z,41.29
2023-03-25T22:16:34.496Z,41.28
2023-03-25T22:19:03.888Z,41.06
2023-03-25T22:21:33.230Z,41.12
2023-03-25T22:24:02.430Z,40.71
2023-03-25T22:26:31.035Z,40.99
2023-03-25T22:29:00.662Z,40.88
2023-03-25T22:31:31.276Z,40.88
2023-03-25T22:34:03.001Z,40.70
2023-03-25T22:36:32.528Z,40.89
2023-03-25T22:39:00.822Z,40.83
2023-03-25T22:41:28.899Z,40.85
2023-03-25T22:43:57.481Z,40.74
2023-03-25T22:46:25.460Z,40.48
2023-03-25T22:48:53.597Z,40.43
2023-03-25T22:51:21.749Z,40.63
2023-03-25T22:53:51.174Z,40.27
2023-03-25T22:56:20.309Z,40.63
2023-03-25T22:58:48.206Z,40.30
2023-03-25T23:01:20.392Z,40.55
2023-03-25T23:04:26.158Z,40.25
2023-03-25T23:07:06.866Z,40.16
2023-03-25T23:09:42.392Z,40.18
2023-03-25T23:12:11.625Z,40.04
2023-03-25T23:14:40.166Z,40.14
2023-03-25T23:17:08.164Z,40.10
2023-03-25T23:20:05.764Z,40.16
2023-03-25T23:22:37.808Z,40.24
2023-03-25T23:25:09.647Z,39.84
2023-03-25T23:27:39.411Z,39.95
2023-03-25T23:30:09.453Z,40.07
2023-03-25T23:39:27.995Z,39.87
2023-03-25T23:41:58.627Z,39.71
2023-03-25T23:44:27.450Z,39.35
2023-03-25T23:46:56.520Z,39.51
2023-03-25T23:49:24.551Z,39.60
2023-03-25T23:51:54.546Z,39.15
2023-03-25T23:54:26.194Z,39.58
2023-03-25T23:56:55.487Z,39.33
2023-03-25T23:59:27.414Z,39.24
